Otumpa, Argentina
Current Conditions -  °F | °C
As of 12:00 PM on Saturday 22 Nov 2014 (Local Time) from SANT Reporting Station
Scattered Clouds Scattered Clouds  
Wind Chill: 79°   Ceiling: Unl
Heat Index: 80°   Visibility: 6mi
Dew Point: 61°   Wind: 9mph
Humidity: 54%   Direction: 320°NW
Pressure: 30.06"   Gusts: NA
Location:  27.32°S, 62.22°W
Report Text: SANT 221500Z 32008KT 9999 FEW030 SCT04026/16 Q1018
Loading
Personal Weather Stations






























Interactive Weather Map New forecast layout! Learn more

10-Day Weather Forecast

Advertisements
Track Severe Weather on mobile